Time;durP1;ratioP1;P1;durP2;ratioP2;P2;SDS_P1;SDS_P2;PMS_P1;PMS_P2;Temp;Humidity;BMP_temperature;BMP_pressure;BME280_temperature;BME280_humidity;BME280_pressure;Samples;Min_cycle;Max_cycle;Signal;HPM_P1;HPM_P2
2023/07/24 00:01:47;;;;;;;17.37;8.47;;;17.90;99.90;;;;;;5032469;28;20209;-77
2023/07/24 00:04:15;;;;;;;15.57;8.40;;;17.90;99.90;;;;;;5032775;28;20588;-77
2023/07/24 00:06:43;;;;;;;11.63;7.60;;;17.80;99.90;;;;;;5032453;28;20282;-77
2023/07/24 00:09:13;;;;;;;12.87;8.50;;;17.80;99.90;;;;;;5045336;28;20239;-76
2023/07/24 00:11:41;;;;;;;13.50;8.10;;;17.80;99.90;;;;;;5053845;28;20278;-80
2023/07/24 00:14:09;;;;;;;19.07;9.23;;;17.80;99.90;;;;;;5053293;28;20211;-79
2023/07/24 00:16:37;;;;;;;14.60;8.50;;;17.90;99.90;;;;;;5050763;28;20215;-78
2023/07/24 00:19:05;;;;;;;17.57;8.00;;;17.90;99.90;;;;;;5032216;28;20263;-78
2023/07/24 00:21:33;;;;;;;12.97;8.40;;;17.90;99.90;;;;;;5030517;28;20685;-78
2023/07/24 00:24:01;;;;;;;12.77;8.67;;;17.90;99.90;;;;;;5030039;28;20236;-78
2023/07/24 00:26:31;;;;;;;16.23;8.77;;;17.90;99.90;;;;;;5029657;28;20636;-78
2023/07/24 00:29:01;;;;;;;13.70;9.00;;;17.90;99.90;;;;;;5029827;28;20212;-78
2023/07/24 00:31:29;;;;;;;15.20;8.17;;;17.80;99.90;;;;;;5029671;28;20670;-78
2023/07/24 00:34:00;;;;;;;12.10;8.10;;;17.80;99.90;;;;;;5029652;28;20216;-78
2023/07/24 00:36:28;;;;;;;11.20;8.20;;;17.70;99.90;;;;;;5031108;28;20730;-79
2023/07/24 00:38:56;;;;;;;12.50;8.03;;;17.60;99.90;;;;;;5031716;28;20586;-78
2023/07/24 00:41:24;;;;;;;14.70;8.03;;;17.50;99.90;;;;;;5031944;28;20271;-77
2023/07/24 00:43:54;;;;;;;13.33;8.50;;;17.40;99.90;;;;;;5031400;28;20553;-79
2023/07/24 00:46:22;;;;;;;14.67;8.33;;;17.40;99.90;;;;;;5031852;28;20268;-76
2023/07/24 00:48:51;;;;;;;13.90;8.43;;;17.40;99.90;;;;;;5031669;28;20205;-78
2023/07/24 00:51:20;;;;;;;12.90;8.37;;;17.30;99.90;;;;;;5037797;28;20533;-76
2023/07/24 00:53:48;;;;;;;11.60;8.47;;;17.30;99.90;;;;;;5034265;28;20635;-75
2023/07/24 00:56:16;;;;;;;13.83;8.70;;;17.30;99.90;;;;;;5031635;28;20248;-77
2023/07/24 00:58:44;;;;;;;14.20;8.90;;;17.30;99.90;;;;;;5031374;28;20450;-77
2023/07/24 01:01:14;;;;;;;12.17;7.93;;;17.30;99.90;;;;;;5031522;28;20208;-77
2023/07/24 01:03:43;;;;;;;16.77;9.57;;;17.20;99.90;;;;;;5031568;28;20235;-77
2023/07/24 01:06:11;;;;;;;13.60;8.77;;;17.20;99.90;;;;;;5031739;28;20216;-76
2023/07/24 01:08:39;;;;;;;12.57;8.07;;;17.20;99.90;;;;;;5031598;28;20786;-77
2023/07/24 01:11:16;;;;;;;10.87;8.03;;;17.10;99.90;;;;;;5031635;28;20664;-77
2023/07/24 01:13:52;;;;;;;11.83;8.03;;;17.00;99.90;;;;;;5031172;28;20201;-77
2023/07/24 01:16:24;;;;;;;15.60;8.53;;;17.00;99.90;;;;;;5031671;28;20279;-77
2023/07/24 01:18:54;;;;;;;14.37;9.00;;;16.90;99.90;;;;;;5031553;28;20228;-77
2023/07/24 01:21:34;;;;;;;14.37;8.93;;;16.90;99.90;;;;;;5032047;28;20268;-76
2023/07/24 01:24:15;;;;;;;13.47;9.17;;;16.80;99.90;;;;;;5031245;28;20278;-77
2023/07/24 01:26:45;;;;;;;15.07;8.93;;;16.80;99.90;;;;;;5031417;28;20216;-77
2023/07/24 01:29:13;;;;;;;11.87;8.80;;;16.70;99.90;;;;;;5031188;28;20205;-78
2023/07/24 01:31:41;;;;;;;13.93;8.30;;;16.60;99.90;;;;;;5031552;28;20299;-78
2023/07/24 01:34:09;;;;;;;15.03;8.67;;;16.60;99.90;;;;;;5031392;28;20216;-78
2023/07/24 01:36:38;;;;;;;13.53;8.80;;;16.50;99.90;;;;;;5035618;28;20680;-77
2023/07/24 01:39:07;;;;;;;13.20;8.73;;;16.40;99.90;;;;;;5050800;28;20269;-78
2023/07/24 01:41:35;;;;;;;16.10;9.17;;;16.40;99.90;;;;;;5051032;28;20212;-78
2023/07/24 01:44:06;;;;;;;13.33;8.70;;;16.40;99.90;;;;;;5051107;28;20298;-77
2023/07/24 01:46:34;;;;;;;13.63;8.60;;;16.40;99.90;;;;;;5035953;28;20241;-78
2023/07/24 01:49:02;;;;;;;13.57;9.23;;;16.40;99.90;;;;;;5034752;28;20205;-77
2023/07/24 01:51:32;;;;;;;13.63;8.80;;;16.40;99.90;;;;;;5053908;28;20236;-78
2023/07/24 01:54:00;;;;;;;13.93;9.20;;;16.50;99.90;;;;;;5052828;28;20204;-79
2023/07/24 01:56:28;;;;;;;12.33;9.17;;;16.50;99.90;;;;;;5034834;28;20524;-78
2023/07/24 01:58:56;;;;;;;13.33;9.23;;;16.60;99.90;;;;;;5040514;28;20230;-76
2023/07/24 02:01:26;;;;;;;12.77;8.47;;;16.60;99.90;;;;;;5054253;28;20278;-76
2023/07/24 02:03:54;;;;;;;12.83;7.93;;;16.70;99.90;;;;;;5034378;28;20212;-76
2023/07/24 02:06:22;;;;;;;13.63;8.40;;;16.70;99.90;;;;;;5034349;28;20308;-77
2023/07/24 02:08:51;;;;;;;12.47;8.53;;;16.70;99.90;;;;;;5034526;28;20615;-77
2023/07/24 02:11:19;;;;;;;11.83;9.10;;;16.70;99.90;;;;;;5034730;28;20204;-76
2023/07/24 02:13:47;;;;;;;15.57;9.00;;;16.70;99.90;;;;;;5034110;28;20231;-76
2023/07/24 02:16:15;;;;;;;12.83;8.60;;;16.70;99.90;;;;;;5034215;28;20615;-76
2023/07/24 02:18:45;;;;;;;11.47;8.33;;;16.70;99.90;;;;;;5034157;28;20749;-77
2023/07/24 02:21:13;;;;;;;12.10;8.43;;;16.80;99.90;;;;;;5034057;28;20239;-77
2023/07/24 02:23:41;;;;;;;13.87;9.50;;;16.80;99.90;;;;;;5033897;28;20201;-77
2023/07/24 02:26:09;;;;;;;12.87;9.20;;;16.80;99.90;;;;;;5034151;28;20642;-75
2023/07/24 02:28:37;;;;;;;15.27;9.23;;;16.80;99.90;;;;;;5033755;28;20236;-77
2023/07/24 02:31:05;;;;;;;13.70;9.23;;;16.90;99.90;;;;;;5033953;28;20663;-75
2023/07/24 02:33:33;;;;;;;12.70;8.77;;;16.90;99.90;;;;;;5033812;28;20217;-76
2023/07/24 02:36:03;;;;;;;13.60;8.73;;;17.00;99.90;;;;;;5037769;28;20555;-77
2023/07/24 02:38:31;;;;;;;11.93;8.80;;;17.00;99.90;;;;;;5053782;28;20204;-77
2023/07/24 02:40:59;;;;;;;12.63;8.47;;;17.10;99.90;;;;;;5053752;28;20275;-77
2023/07/24 02:43:27;;;;;;;12.03;8.43;;;17.10;99.90;;;;;;5052880;28;20271;-76
2023/07/24 02:45:55;;;;;;;12.93;8.73;;;17.20;99.90;;;;;;5043818;28;20656;-78
2023/07/24 02:48:24;;;;;;;11.97;8.50;;;17.30;99.90;;;;;;5038847;28;20200;-77
2023/07/24 02:50:52;;;;;;;14.33;8.77;;;17.30;99.90;;;;;;5053509;28;20618;-77
2023/07/24 02:53:21;;;;;;;11.27;8.33;;;17.30;99.90;;;;;;5052270;28;20248;-76
2023/07/24 02:55:49;;;;;;;13.30;8.63;;;17.30;99.90;;;;;;5033536;28;20264;-77
2023/07/24 02:58:17;;;;;;;12.13;8.40;;;17.30;99.90;;;;;;5033117;28;20216;-78
2023/07/24 03:00:45;;;;;;;13.53;8.70;;;17.30;99.90;;;;;;5033119;28;20229;-77
2023/07/24 03:03:14;;;;;;;15.23;9.63;;;17.30;99.90;;;;;;5032658;28;20259;-76
2023/07/24 03:05:42;;;;;;;14.13;9.27;;;17.30;99.90;;;;;;5033383;28;20220;-78
2023/07/24 03:08:10;;;;;;;12.40;8.67;;;17.30;99.90;;;;;;5033568;28;20283;-77
2023/07/24 03:10:42;;;;;;;12.87;9.00;;;17.30;99.90;;;;;;5032886;28;20327;-77
2023/07/24 03:13:10;;;;;;;13.20;9.17;;;17.30;99.90;;;;;;5039185;28;20208;-76
2023/07/24 03:15:39;;;;;;;12.17;8.77;;;17.30;99.90;;;;;;5034287;28;20205;-77
2023/07/24 03:18:07;;;;;;;15.73;8.50;;;17.30;99.90;;;;;;5033220;28;20678;-78
2023/07/24 03:20:35;;;;;;;13.60;8.83;;;17.30;99.90;;;;;;5032599;28;20648;-78
2023/07/24 03:23:03;;;;;;;13.10;8.23;;;17.30;99.90;;;;;;5032638;28;20675;-77
2023/07/24 03:25:35;;;;;;;11.83;8.70;;;17.40;99.90;;;;;;5033181;28;20236;-76
2023/07/24 03:28:05;;;;;;;15.37;9.03;;;17.40;99.90;;;;;;5033077;28;20193;-78
2023/07/24 03:30:33;;;;;;;18.63;9.77;;;17.40;99.90;;;;;;5033542;28;20232;-77
2023/07/24 03:33:02;;;;;;;16.90;10.07;;;17.40;99.90;;;;;;5033054;28;20232;-77
2023/07/24 03:35:30;;;;;;;16.77;10.93;;;17.30;99.90;;;;;;5032847;28;20244;-75
2023/07/24 03:37:58;;;;;;;17.00;10.60;;;17.00;99.90;;;;;;5033265;28;20213;-76
2023/07/24 03:40:26;;;;;;;16.13;10.30;;;16.90;99.90;;;;;;5033102;28;20639;-77
2023/07/24 03:42:54;;;;;;;15.90;10.07;;;16.60;99.90;;;;;;5032899;28;20209;-76
2023/07/24 03:45:24;;;;;;;17.70;10.77;;;16.50;99.90;;;;;;5032881;28;20205;-76
2023/07/24 03:47:52;;;;;;;16.60;10.53;;;16.40;99.90;;;;;;5045377;28;20586;-75
2023/07/24 03:50:20;;;;;;;16.13;10.37;;;16.30;99.90;;;;;;5053182;28;20204;-75
2023/07/24 03:52:48;;;;;;;15.70;11.47;;;16.20;99.90;;;;;;5051518;28;20570;-77
2023/07/24 03:55:16;;;;;;;19.10;11.47;;;16.20;99.90;;;;;;5032516;28;20205;-76
2023/07/24 03:57:44;;;;;;;16.83;11.53;;;16.20;99.90;;;;;;5032672;28;20209;-76
2023/07/24 04:00:13;;;;;;;17.43;11.07;;;16.20;99.90;;;;;;5032928;28;20368;-77
2023/07/24 04:02:43;;;;;;;14.67;11.60;;;16.30;99.90;;;;;;5032069;28;20564;-76
2023/07/24 04:05:11;;;;;;;17.47;12.03;;;16.20;99.90;;;;;;5032679;28;20212;-82
2023/07/24 04:07:39;;;;;;;18.60;11.93;;;16.20;99.90;;;;;;5032563;28;20300;-79
2023/07/24 04:10:08;;;;;;;17.00;11.87;;;16.20;99.90;;;;;;5031404;28;20218;-79
2023/07/24 04:12:36;;;;;;;17.67;12.83;;;16.20;99.90;;;;;;5031834;28;20729;-81
2023/07/24 04:15:05;;;;;;;17.43;12.00;;;16.20;99.90;;;;;;5032499;28;20239;-77
2023/07/24 04:17:35;;;;;;;18.57;12.83;;;16.20;99.90;;;;;;5032554;28;20247;-79
2023/07/24 04:20:06;;;;;;;15.73;12.33;;;16.20;99.90;;;;;;5032671;28;20291;-78
2023/07/24 04:22:34;;;;;;;18.40;13.00;;;16.20;99.90;;;;;;5031763;28;20223;-80
2023/07/24 04:25:03;;;;;;;15.73;12.27;;;16.20;99.90;;;;;;5032616;28;20209;-81
2023/07/24 04:27:31;;;;;;;17.07;12.57;;;16.10;99.90;;;;;;5040004;28;20217;-77
2023/07/24 04:29:59;;;;;;;18.17;11.77;;;16.20;99.90;;;;;;5048650;28;20205;-79
2023/07/24 04:32:27;;;;;;;16.67;12.40;;;16.30;99.90;;;;;;5036015;28;20213;-78
2023/07/24 04:34:55;;;;;;;17.90;12.23;;;16.20;99.90;;;;;;5032003;28;20224;-77
2023/07/24 04:37:25;;;;;;;16.53;12.50;;;16.30;99.90;;;;;;5032151;28;20208;-76
2023/07/24 04:39:53;;;;;;;17.70;12.30;;;16.30;99.90;;;;;;5031650;28;20256;-76
2023/07/24 04:42:21;;;;;;;16.27;12.50;;;16.40;99.90;;;;;;5031668;28;20355;-80
2023/07/24 04:44:51;;;;;;;17.53;12.37;;;16.40;99.90;;;;;;5042396;28;20626;-80
2023/07/24 04:47:19;;;;;;;17.80;12.67;;;16.40;99.90;;;;;;5037838;28;20315;-80
2023/07/24 04:49:47;;;;;;;15.67;12.20;;;16.40;99.90;;;;;;5031474;28;20209;-78
2023/07/24 04:52:15;;;;;;;15.70;11.73;;;16.50;99.90;;;;;;5031646;28;20235;-79
2023/07/24 04:54:45;;;;;;;17.20;12.33;;;16.50;99.90;;;;;;5032902;28;20244;-78
2023/07/24 04:57:13;;;;;;;20.20;12.87;;;16.50;99.90;;;;;;5034716;28;20211;-78
2023/07/24 04:59:41;;;;;;;15.43;12.13;;;16.50;99.90;;;;;;5051434;28;20223;-81
2023/07/24 05:02:11;;;;;;;17.53;12.27;;;16.40;99.90;;;;;;5052567;28;20278;-78
2023/07/24 05:04:39;;;;;;;17.30;12.63;;;16.40;99.90;;;;;;5052578;28;20231;-81
2023/07/24 05:07:07;;;;;;;16.43;11.73;;;16.20;99.90;;;;;;5040469;28;20267;-76
2023/07/24 05:09:35;;;;;;;19.40;12.87;;;16.30;99.90;;;;;;5032848;28;20219;-77
2023/07/24 05:12:06;;;;;;;17.47;12.30;;;16.30;99.90;;;;;;5032107;28;20209;-80
2023/07/24 05:14:34;;;;;;;16.67;12.57;;;16.40;99.90;;;;;;5031536;28;20209;-75
2023/07/24 05:17:03;;;;;;;16.50;12.90;;;16.30;99.90;;;;;;5031840;28;20263;-75
2023/07/24 05:19:31;;;;;;;18.53;12.13;;;16.40;99.90;;;;;;5032638;28;20213;-77
2023/07/24 05:22:00;;;;;;;18.70;13.03;;;16.30;99.90;;;;;;5032559;28;20276;-82
2023/07/24 05:24:28;;;;;;;19.57;13.90;;;16.40;99.90;;;;;;5035402;28;20667;-76
2023/07/24 05:26:56;;;;;;;18.37;13.10;;;16.60;99.90;;;;;;5035485;28;20215;-74
2023/07/24 05:29:25;;;;;;;18.57;12.30;;;16.60;99.90;;;;;;5034982;28;20212;-75
2023/07/24 05:31:53;;;;;;;17.10;12.17;;;16.70;99.90;;;;;;5034777;28;20208;-74
2023/07/24 05:34:22;;;;;;;16.10;11.90;;;16.80;99.90;;;;;;5034126;28;20305;-75
2023/07/24 05:36:50;;;;;;;15.93;11.67;;;16.80;99.90;;;;;;5033098;28;20209;-75
2023/07/24 05:39:18;;;;;;;15.80;11.53;;;16.90;99.90;;;;;;5033262;28;20733;-75
2023/07/24 05:41:47;;;;;;;18.93;12.20;;;16.80;99.90;;;;;;5033747;28;20225;-74
2023/07/24 05:44:15;;;;;;;19.93;12.07;;;16.90;99.90;;;;;;5039085;28;20211;-75
2023/07/24 05:46:45;;;;;;;16.97;11.27;;;16.80;99.90;;;;;;5053246;28;20232;-75
2023/07/24 05:49:13;;;;;;;16.57;11.73;;;16.80;99.90;;;;;;5037925;28;20304;-75
2023/07/24 05:51:41;;;;;;;14.03;11.00;;;16.80;99.90;;;;;;5033360;28;20201;-75
2023/07/24 05:54:09;;;;;;;16.60;11.43;;;16.80;99.90;;;;;;5033011;28;20240;-75
2023/07/24 05:56:37;;;;;;;15.70;11.43;;;16.90;99.90;;;;;;5033105;28;20281;-74
2023/07/24 05:59:07;;;;;;;16.27;11.40;;;16.90;99.90;;;;;;5035135;28;20489;-75
2023/07/24 06:01:35;;;;;;;12.73;10.87;;;17.10;99.90;;;;;;5035103;28;20232;-81
2023/07/24 06:04:07;;;;;;;12.60;10.27;;;17.40;99.90;;;;;;5034731;28;20652;-74
2023/07/24 06:06:36;;;;;;;11.20;9.63;;;18.00;99.90;;;;;;5034633;28;20643;-74
2023/07/24 06:09:04;;;;;;;13.93;10.13;;;18.40;99.90;;;;;;5034485;28;20190;-75
2023/07/24 06:11:32;;;;;;;12.37;9.67;;;18.80;99.90;;;;;;5034516;28;20263;-78
2023/07/24 06:14:00;;;;;;;12.10;9.57;;;18.80;99.90;;;;;;5033991;28;20212;-77
2023/07/24 06:16:28;;;;;;;14.40;9.90;;;18.70;99.90;;;;;;5034250;28;20213;-75
2023/07/24 06:18:57;;;;;;;10.30;8.83;;;18.90;99.90;;;;;;5034505;28;20212;-74
2023/07/24 06:21:26;;;;;;;11.70;9.30;;;19.30;99.90;;;;;;5034104;28;20236;-77
2023/07/24 06:23:54;;;;;;;13.53;9.27;;;19.80;99.90;;;;;;5034787;28;20193;-76
2023/07/24 06:26:22;;;;;;;13.83;8.80;;;20.50;99.90;;;;;;5034474;28;20616;-74
2023/07/24 06:28:50;;;;;;;11.30;8.93;;;21.20;99.90;;;;;;5034411;28;20217;-76
2023/07/24 06:31:18;;;;;;;12.13;8.83;;;21.50;99.90;;;;;;5034238;28;20209;-77
2023/07/24 06:33:47;;;;;;;11.20;8.90;;;21.60;99.90;;;;;;5033710;28;20209;-76
2023/07/24 06:36:15;;;;;;;11.33;9.80;;;21.60;99.90;;;;;;5034193;28;20485;-74
2023/07/24 06:38:44;;;;;;;13.57;9.43;;;21.40;99.90;;;;;;5034229;28;20232;-76
2023/07/24 06:41:12;;;;;;;12.27;9.10;;;21.30;99.90;;;;;;5034008;28;20236;-75
2023/07/24 06:43:40;;;;;;;10.53;8.67;;;21.30;99.90;;;;;;5036233;28;20248;-77
2023/07/24 06:46:08;;;;;;;14.03;9.30;;;21.20;99.90;;;;;;5033977;28;20208;-75
2023/07/24 06:48:36;;;;;;;11.77;8.80;;;21.50;99.90;;;;;;5034048;28;20630;-75
2023/07/24 06:51:04;;;;;;;11.23;8.50;;;21.90;99.90;;;;;;5033715;28;20275;-77
2023/07/24 06:53:32;;;;;;;14.77;9.03;;;22.50;99.90;;;;;;5033292;28;20216;-76
2023/07/24 06:56:02;;;;;;;10.70;8.33;;;23.10;99.90;;;;;;5033634;28;20290;-78
2023/07/24 06:58:30;;;;;;;10.77;8.57;;;24.40;99.90;;;;;;5033536;28;20217;-79
2023/07/24 07:00:58;;;;;;;11.17;8.50;;;24.50;99.90;;;;;;5033444;28;20256;-80
2023/07/24 07:03:26;;;;;;;12.87;9.23;;;24.70;99.90;;;;;;5033567;28;20617;-79
2023/07/24 07:05:59;;;;;;;10.13;8.57;;;25.00;99.90;;;;;;5033749;28;20209;-79
2023/07/24 07:08:28;;;;;;;11.13;8.20;;;25.10;99.90;;;;;;5033770;28;20275;-78
2023/07/24 07:10:57;;;;;;;9.93;8.43;;;25.30;99.90;;;;;;5033719;28;20271;-80
2023/07/24 07:13:26;;;;;;;10.27;7.97;;;25.90;99.90;;;;;;5042710;28;20197;-80
2023/07/24 07:15:54;;;;;;;10.27;8.00;;;26.10;99.90;;;;;;5053966;28;20266;-80
2023/07/24 07:18:23;;;;;;;10.90;8.30;;;26.70;99.90;;;;;;5038749;28;20247;-84
2023/07/24 07:20:52;;;;;;;9.00;7.82;;;27.40;99.90;;;;;;5033549;28;20251;-81
2023/07/24 07:23:21;;;;;;;12.27;8.75;;;27.80;99.90;;;;;;5033730;28;20691;-85
2023/07/24 07:25:50;;;;;;;9.95;7.97;;;28.80;95.20;;;;;;5035749;28;20209;-82
2023/07/24 07:28:18;;;;;;;11.23;8.63;;;29.00;94.10;;;;;;5036660;28;20204;-80
2023/07/24 07:30:48;;;;;;;9.98;7.63;;;28.60;93.20;;;;;;5035218;28;20209;-81
2023/07/24 07:33:16;;;;;;;11.45;8.45;;;28.50;92.90;;;;;;5035737;28;20197;-81
2023/07/24 07:35:44;;;;;;;10.90;8.07;;;28.30;92.60;;;;;;5036560;28;20592;-80
2023/07/24 07:38:12;;;;;;;9.27;8.25;;;28.00;95.30;;;;;;5036287;28;20291;-80
2023/07/24 07:40:40;;;;;;;11.63;8.88;;;27.00;94.00;;;;;;5036819;28;20213;-80
2023/07/24 07:43:10;;;;;;;11.73;8.90;;;26.20;97.50;;;;;;5040202;28;20229;-78
2023/07/24 07:45:38;;;;;;;11.57;8.37;;;25.50;99.00;;;;;;5033370;28;20254;-78
2023/07/24 07:48:07;;;;;;;11.23;8.90;;;24.60;99.90;;;;;;5034610;28;20216;-76
2023/07/24 07:50:36;;;;;;;9.53;8.47;;;24.10;99.90;;;;;;5033202;28;20271;-78
2023/07/24 07:53:04;;;;;;;11.07;8.57;;;23.60;99.90;;;;;;5032550;28;20658;-78
2023/07/24 07:55:32;;;;;;;11.03;8.70;;;23.20;99.90;;;;;;5032907;28;20671;-77
2023/07/24 07:58:00;;;;;;;13.63;8.60;;;23.10;99.90;;;;;;5032086;28;20214;-77
2023/07/24 08:00:29;;;;;;;11.40;7.70;;;23.00;99.90;;;;;;5033371;28;20209;-75
2023/07/24 08:02:58;;;;;;;9.03;7.40;;;22.70;99.90;;;;;;5033152;28;20235;-78
2023/07/24 08:05:27;;;;;;;12.93;8.07;;;22.70;99.90;;;;;;5032760;28;20726;-77
2023/07/24 08:07:56;;;;;;;10.00;7.77;;;22.60;99.90;;;;;;5033014;28;20263;-79
2023/07/24 08:10:24;;;;;;;11.90;7.77;;;22.40;99.90;;;;;;5032826;28;20241;-78
2023/07/24 08:12:52;;;;;;;10.97;8.30;;;22.10;99.90;;;;;;5032463;28;20216;-78
2023/07/24 08:15:20;;;;;;;10.43;8.60;;;21.80;99.90;;;;;;5032631;28;20621;-79
2023/07/24 08:17:48;;;;;;;14.23;7.80;;;21.60;99.90;;;;;;5032581;28;20209;-76
2023/07/24 08:20:17;;;;;;;9.90;7.43;;;21.40;99.90;;;;;;5032573;28;20212;-76
2023/07/24 08:22:46;;;;;;;10.47;7.70;;;21.40;99.90;;;;;;5032962;28;20241;-78
2023/07/24 08:25:14;;;;;;;13.40;7.70;;;21.40;99.90;;;;;;5032624;28;20220;-78
2023/07/24 08:27:44;;;;;;;10.43;7.67;;;21.20;99.90;;;;;;5032408;28;20299;-79
2023/07/24 08:30:31;;;;;;;9.63;7.70;;;21.30;99.90;;;;;;5032103;28;20197;-76
2023/07/24 08:33:00;;;;;;;9.80;6.97;;;21.30;99.90;;;;;;5032306;28;20209;-78
2023/07/24 08:35:28;;;;;;;9.93;7.37;;;21.30;99.90;;;;;;5032187;28;20313;-78
2023/07/24 08:37:58;;;;;;;8.93;7.13;;;21.30;99.90;;;;;;5032379;28;20208;-78
2023/07/24 08:40:26;;;;;;;9.57;6.90;;;21.30;99.90;;;;;;5041147;28;20571;-76
2023/07/24 08:42:56;;;;;;;9.73;6.93;;;21.40;99.90;;;;;;5047890;28;20293;-77
2023/07/24 08:45:25;;;;;;;10.67;7.30;;;21.50;99.90;;;;;;5032723;28;20208;-77
2023/07/24 08:47:53;;;;;;;8.07;6.43;;;21.60;99.90;;;;;;5032182;28;20217;-77
2023/07/24 08:50:22;;;;;;;9.90;6.80;;;21.60;99.90;;;;;;5034261;28;20300;-77
2023/07/24 08:52:51;;;;;;;8.00;6.73;;;21.60;99.90;;;;;;5051440;28;20658;-79
2023/07/24 08:55:21;;;;;;;9.97;6.90;;;21.60;99.90;;;;;;5052291;28;20396;-76
2023/07/24 08:57:49;;;;;;;10.77;7.30;;;21.50;99.90;;;;;;5056373;28;20223;-79
2023/07/24 09:00:18;;;;;;;9.17;6.97;;;21.40;99.90;;;;;;5041784;28;20209;-78
2023/07/24 09:02:47;;;;;;;12.17;7.10;;;21.40;99.90;;;;;;5036392;28;20271;-78
2023/07/24 09:05:16;;;;;;;10.03;6.93;;;21.40;99.90;;;;;;5036050;28;20244;-78
2023/07/24 09:07:45;;;;;;;9.37;7.17;;;21.20;99.90;;;;;;5035862;28;20722;-79
2023/07/24 09:10:15;;;;;;;9.50;6.27;;;21.00;99.90;;;;;;5039348;28;20220;-78
2023/07/24 09:12:45;;;;;;;9.23;6.80;;;21.00;99.90;;;;;;5040558;28;20209;-78
2023/07/24 09:15:14;;;;;;;9.80;6.50;;;21.00;99.90;;;;;;5041928;28;20212;-77
2023/07/24 09:17:50;;;;;;;8.60;6.20;;;21.00;99.90;;;;;;5060986;28;20227;-79
2023/07/24 09:20:19;;;;;;;8.63;6.90;;;21.10;99.90;;;;;;5059672;28;20301;-79
2023/07/24 09:22:59;;;;;;;8.90;6.10;;;21.20;99.90;;;;;;5055420;28;20697;-79
2023/07/24 09:25:34;;;;;;;9.53;6.47;;;21.30;99.90;;;;;;5051335;28;20240;-79
2023/07/24 09:28:11;;;;;;;8.60;6.37;;;21.40;99.90;;;;;;5035886;28;20690;-78
2023/07/24 09:30:39;;;;;;;7.87;6.10;;;21.40;99.90;;;;;;5035590;28;20557;-78
2023/07/24 09:33:09;;;;;;;9.50;6.40;;;21.40;99.90;;;;;;5035447;28;20232;-79
2023/07/24 09:35:37;;;;;;;8.73;6.50;;;21.30;99.90;;;;;;5048873;28;20212;-78
2023/07/24 09:38:07;;;;;;;9.83;6.50;;;21.20;99.90;;;;;;5055162;28;20258;-77
2023/07/24 09:40:40;;;;;;;8.33;6.47;;;21.20;99.90;;;;;;5055675;28;20211;-78
2023/07/24 09:43:21;;;;;;;7.83;6.23;;;21.10;99.90;;;;;;5054897;28;20228;-78
2023/07/24 09:46:07;;;;;;;11.40;7.13;;;21.10;99.90;;;;;;5035316;28;20197;-78
2023/07/24 09:48:37;;;;;;;9.73;6.57;;;21.20;99.90;;;;;;5034847;28;20689;-79
2023/07/24 09:51:12;;;;;;;8.40;6.30;;;21.20;99.90;;;;;;5036197;28;20644;-78
2023/07/24 09:53:45;;;;;;;10.03;6.43;;;21.30;99.90;;;;;;5035357;28;20237;-80
2023/07/24 09:56:15;;;;;;;12.30;6.83;;;21.30;99.90;;;;;;5036113;28;20220;-78
2023/07/24 09:58:45;;;;;;;7.90;6.70;;;21.20;99.90;;;;;;5034936;28;20208;-80
2023/07/24 10:01:14;;;;;;;8.30;6.60;;;21.30;99.90;;;;;;5036893;28;20217;-76
2023/07/24 10:03:47;;;;;;;11.77;7.17;;;21.20;99.90;;;;;;5037881;28;20308;-78
2023/07/24 10:06:17;;;;;;;10.40;6.50;;;21.30;99.90;;;;;;5036023;28;20213;-78
2023/07/24 10:08:45;;;;;;;9.03;6.70;;;21.50;99.90;;;;;;5035355;28;20255;-78
2023/07/24 10:11:15;;;;;;;12.73;6.67;;;21.90;99.90;;;;;;5040293;28;20228;-78
2023/07/24 10:13:46;;;;;;;9.90;6.87;;;22.60;99.90;;;;;;5058074;28;20219;-78
2023/07/24 10:16:14;;;;;;;8.33;6.50;;;23.90;99.90;;;;;;5054735;28;20212;-80
2023/07/24 10:18:45;;;;;;;7.80;6.20;;;24.90;99.90;;;;;;5055152;28;20212;-75
2023/07/24 10:21:14;;;;;;;8.13;6.80;;;25.20;99.90;;;;;;5054574;28;20307;-79
2023/07/24 10:23:46;;;;;;;10.00;6.80;;;25.30;99.90;;;;;;5058835;28;20272;-80
2023/07/24 10:26:15;;;;;;;7.93;6.13;;;25.20;99.90;;;;;;5055503;28;20562;-80
2023/07/24 10:28:48;;;;;;;8.80;6.27;;;25.30;99.90;;;;;;5048543;28;20252;-78
2023/07/24 10:31:22;;;;;;;7.70;6.00;;;25.20;99.90;;;;;;5036523;28;20228;-81
2023/07/24 10:33:52;;;;;;;7.57;6.07;;;25.10;99.90;;;;;;5034364;28;20717;-79
2023/07/24 10:36:22;;;;;;;8.07;5.93;;;25.20;99.90;;;;;;5036214;28;20256;-78
2023/07/24 10:38:54;;;;;;;7.53;6.23;;;25.20;99.90;;;;;;5038100;28;20212;-82
2023/07/24 10:41:23;;;;;;;10.70;6.33;;;25.20;99.90;;;;;;5035142;28;20292;-78
2023/07/24 10:44:00;;;;;;;8.37;5.93;;;25.50;99.90;;;;;;5037491;28;20236;-77
2023/07/24 10:46:37;;;;;;;7.33;6.33;;;25.50;99.90;;;;;;5036107;28;20219;-82
2023/07/24 10:49:05;;;;;;;8.13;6.17;;;25.80;99.90;;;;;;5042581;28;20204;-80
2023/07/24 10:51:37;;;;;;;7.70;6.33;;;26.30;99.90;;;;;;5036674;28;20271;-80
2023/07/24 10:54:06;;;;;;;8.37;5.83;;;26.90;99.90;;;;;;5033975;28;20212;-80
2023/07/24 10:56:34;;;;;;;7.13;6.20;;;27.00;99.90;;;;;;5033967;28;20280;-78
2023/07/24 10:59:06;;;;;;;7.47;5.83;;;26.80;98.20;;;;;;5036047;28;20209;-80
2023/07/24 11:01:35;;;;;;;8.40;6.20;;;27.00;99.90;;;;;;5037231;28;20263;-79
2023/07/24 11:04:04;;;;;;;7.93;5.70;;;26.90;97.40;;;;;;5040186;28;20532;-80
2023/07/24 11:06:32;;;;;;;7.83;5.90;;;26.50;93.50;;;;;;5037236;28;20205;-82
2023/07/24 11:09:01;;;;;;;6.97;6.00;;;26.00;97.30;;;;;;5035889;28;20206;-79
2023/07/24 11:11:30;;;;;;;7.90;6.60;;;25.80;98.10;;;;;;5035212;28;20219;-79
2023/07/24 11:14:00;;;;;;;7.47;5.70;;;25.60;99.40;;;;;;5036470;28;20304;-80
2023/07/24 11:16:31;;;;;;;7.90;6.27;;;25.50;99.90;;;;;;5036386;28;20232;-80
2023/07/24 11:18:59;;;;;;;8.23;6.17;;;25.50;99.90;;;;;;5035590;28;20198;-79
2023/07/24 11:21:28;;;;;;;8.57;6.37;;;25.40;99.90;;;;;;5036916;28;20212;-82
2023/07/24 11:23:58;;;;;;;8.33;6.07;;;25.60;99.90;;;;;;5035086;28;20231;-81
2023/07/24 11:26:27;;;;;;;8.17;6.20;;;26.00;99.90;;;;;;5035740;28;20811;-80
2023/07/24 11:28:56;;;;;;;7.93;6.40;;;26.40;99.90;;;;;;5034834;28;20213;-81
2023/07/24 11:31:24;;;;;;;8.67;6.40;;;26.60;99.50;;;;;;5034233;28;20209;-80
2023/07/24 11:33:54;;;;;;;7.80;6.20;;;27.10;99.90;;;;;;5034507;28;20209;-80
2023/07/24 11:36:23;;;;;;;8.97;6.43;;;27.20;98.50;;;;;;5044383;28;20590;-82
2023/07/24 11:38:51;;;;;;;7.10;5.90;;;27.30;98.80;;;;;;5036621;28;20231;-79
2023/07/24 11:41:19;;;;;;;8.93;6.00;;;27.70;97.90;;;;;;5034235;28;20208;-79
2023/07/24 11:43:49;;;;;;;6.23;5.43;;;27.90;93.10;;;;;;5034210;28;20224;-81
2023/07/24 11:46:24;;;;;;;6.87;5.47;;;28.40;90.50;;;;;;5032975;28;20299;-81
2023/07/24 11:48:56;;;;;;;7.00;5.77;;;28.20;94.10;;;;;;5032921;28;20216;-79
2023/07/24 11:51:27;;;;;;;7.20;4.83;;;28.20;92.80;;;;;;5033246;28;20211;-80
2023/07/24 11:54:07;;;;;;;6.90;5.30;;;28.10;92.50;;;;;;5032623;28;20589;-80
2023/07/24 11:56:35;;;;;;;4.83;4.23;;;27.80;92.00;;;;;;5032815;28;20713;-79
2023/07/24 11:59:14;;;;;;;5.17;4.30;;;27.40;88.60;;;;;;5032893;28;20255;-81
2023/07/24 12:01:42;;;;;;;9.20;6.50;;;27.50;90.50;;;;;;5040320;28;20208;-79
2023/07/24 12:04:12;;;;;;;6.47;4.83;;;27.90;85.30;;;;;;5056321;28;20231;-79
2023/07/24 12:06:40;;;;;;;6.20;4.43;;;28.10;83.30;;;;;;5056609;28;20555;-81
2023/07/24 12:09:09;;;;;;;4.60;4.07;;;28.00;83.60;;;;;;5048445;28;20695;-79
2023/07/24 12:11:41;;;;;;;4.57;3.83;;;27.60;82.60;;;;;;5032885;28;20621;-80
2023/07/24 12:14:13;;;;;;;5.00;3.87;;;27.50;81.70;;;;;;5032546;28;20271;-78
2023/07/24 12:16:41;;;;;;;5.30;3.90;;;27.20;84.30;;;;;;5032784;28;20730;-80
2023/07/24 12:19:11;;;;;;;5.73;4.43;;;27.00;84.50;;;;;;5033004;28;20209;-79
2023/07/24 12:21:39;;;;;;;7.03;4.70;;;26.50;88.10;;;;;;5032500;28;20215;-79
2023/07/24 12:24:07;;;;;;;5.77;4.50;;;26.10;86.70;;;;;;5031699;28;20212;-79
2023/07/24 12:26:36;;;;;;;4.80;4.30;;;25.90;90.20;;;;;;5032646;28;20248;-78
2023/07/24 12:29:04;;;;;;;6.97;4.57;;;25.80;93.30;;;;;;5032127;28;20208;-78
2023/07/24 12:31:32;;;;;;;5.53;4.23;;;25.70;93.40;;;;;;5031804;28;20216;-78
2023/07/24 12:34:01;;;;;;;7.47;4.83;;;25.40;93.30;;;;;;5034298;28;20392;-80
2023/07/24 12:36:30;;;;;;;6.33;5.33;;;25.20;95.70;;;;;;5031866;28;20224;-81
2023/07/24 12:38:58;;;;;;;5.47;4.73;;;25.00;98.20;;;;;;5032949;28;20224;-78
2023/07/24 12:41:26;;;;;;;7.23;5.07;;;24.70;99.10;;;;;;5033976;28;20307;-81
2023/07/24 12:43:55;;;;;;;10.77;5.30;;;24.30;99.90;;;;;;5032417;28;20216;-77
2023/07/24 12:46:23;;;;;;;9.30;5.73;;;23.70;99.90;;;;;;5032291;28;20236;-80
2023/07/24 12:48:51;;;;;;;12.10;5.90;;;22.90;99.90;;;;;;5032194;28;20247;-78